createdAt,value
2016-12-21T00:00:05.130Z,42.28
2016-12-21T00:01:05.159Z,42.28
2016-12-21T00:02:05.184Z,42.28
2016-12-21T00:03:05.508Z,42.38
2016-12-21T00:04:05.537Z,42.38
2016-12-21T00:05:05.261Z,42.28
2016-12-21T00:06:05.294Z,42.19
2016-12-21T00:07:05.319Z,42.19
2016-12-21T00:08:05.648Z,42.19
2016-12-21T00:09:05.375Z,42.28
2016-12-21T00:10:05.713Z,42.09
2016-12-21T00:11:05.733Z,42.47
2016-12-21T00:12:05.776Z,42.28
2016-12-21T00:13:05.788Z,41.71
2016-12-21T00:14:05.817Z,41.8
2016-12-21T00:15:05.534Z,42.28
2016-12-21T00:16:05.866Z,41.89
2016-12-21T00:17:05.591Z,41.8
2016-12-21T00:18:05.619Z,41.71
2016-12-21T00:19:05.645Z,41.99
2016-12-21T00:20:05.973Z,41.71
2016-12-21T00:21:06.002Z,42.09
2016-12-21T00:22:05.726Z,41.99
2016-12-21T00:23:06.056Z,42.09
2016-12-21T00:24:06.084Z,41.99
2016-12-21T00:25:05.809Z,42.09
2016-12-21T00:26:05.834Z,42.09
2016-12-21T00:27:05.867Z,42.09
2016-12-21T00:28:06.195Z,42.09
2016-12-21T00:29:05.925Z,41.99
2016-12-21T00:30:05.945Z,41.99
2016-12-21T00:31:06.273Z,42.09
2016-12-21T00:32:06.311Z,42.09
2016-12-21T00:33:06.019Z,42.19
2016-12-21T00:34:06.364Z,42.09
2016-12-21T00:35:06.076Z,41.99
2016-12-21T00:36:06.414Z,41.89
2016-12-21T00:37:06.446Z,41.89
2016-12-21T00:38:06.467Z,41.99
2016-12-21T00:39:06.192Z,41.89
2016-12-21T00:40:06.216Z,41.89
2016-12-21T00:41:06.546Z,41.99
2016-12-21T00:42:06.578Z,41.41
2016-12-21T00:43:06.602Z,41.99
2016-12-21T00:44:06.322Z,41.71
2016-12-21T00:45:06.661Z,41.61
2016-12-21T00:46:06.398Z,41.22
2016-12-21T00:47:06.715Z,41.22
2016-12-21T00:48:06.443Z,41.41
2016-12-21T00:49:06.803Z,41.41
2016-12-21T00:50:06.485Z,41.41
2016-12-21T00:51:06.517Z,41.51
2016-12-21T00:52:06.550Z,41.41
2016-12-21T00:53:06.571Z,41.51
2016-12-21T00:54:06.909Z,41.88
2016-12-21T00:55:06.629Z,41.39
2016-12-21T00:56:06.655Z,41.59
2016-12-21T00:57:06.982Z,41.39
2016-12-21T00:58:07.003Z,41.59
2016-12-21T00:59:07.031Z,41.39
2016-12-21T01:00:07.072Z,41.2
2016-12-21T01:01:06.793Z,41.59
2016-12-21T01:02:06.813Z,41.59
2016-12-21T01:03:07.169Z,41.59
2016-12-21T01:04:07.178Z,41.2
2016-12-21T01:05:06.896Z,41.2
2016-12-21T01:06:06.920Z,41.2
2016-12-21T01:07:07.260Z,41.3
2016-12-21T01:08:06.973Z,41.49
2016-12-21T01:09:07.305Z,41.49
2016-12-21T01:10:07.030Z,41.68
2016-12-21T01:11:07.359Z,41.59
2016-12-21T01:12:07.086Z,41.39
2016-12-21T01:13:07.112Z,41.68
2016-12-21T01:14:07.445Z,41.39
2016-12-21T01:15:07.161Z,41.59
2016-12-21T01:16:07.190Z,41.2
2016-12-21T01:17:07.210Z,41.59
2016-12-21T01:18:07.543Z,41.3
2016-12-21T01:19:07.584Z,41.39
2016-12-21T01:20:07.298Z,41.39
2016-12-21T01:21:07.329Z,41.59
2016-12-21T01:22:07.658Z,41.39
2016-12-21T01:23:07.678Z,41.39
2016-12-21T01:24:07.402Z,41.49
2016-12-21T01:25:07.732Z,41.49
2016-12-21T01:26:07.456Z,41.49
2016-12-21T01:27:07.793Z,41.39
2016-12-21T01:28:07.505Z,41.39
2016-12-21T01:29:07.542Z,41.2
2016-12-21T01:30:07.567Z,41.78
2016-12-21T01:31:07.895Z,41.59
2016-12-21T01:32:07.624Z,41.47
2016-12-21T01:33:07.953Z,41.59
2016-12-21T01:34:07.673Z,41.78
2016-12-21T01:35:07.702Z,41.68
2016-12-21T01:36:08.035Z,41.59
2016-12-21T01:37:08.051Z,41.59
2016-12-21T01:38:07.780Z,41.59
2016-12-21T01:39:07.809Z,41.3
2016-12-21T01:40:08.142Z,41.39
2016-12-21T01:41:08.162Z,41.68
2016-12-21T01:42:08.193Z,41.59
2016-12-21T01:43:07.915Z,41.78
2016-12-21T01:44:07.944Z,41.59
2016-12-21T01:45:08.277Z,41.39
2016-12-21T01:46:07.999Z,41.3
2016-12-21T01:47:08.326Z,41.59
2016-12-21T01:48:08.051Z,41.78
2016-12-21T01:49:08.075Z,41.68
2016-12-21T01:50:08.412Z,41.49
2016-12-21T01:51:08.129Z,41.56
2016-12-21T01:52:08.158Z,41.28
2016-12-21T01:53:08.187Z,41.76
2016-12-21T01:54:08.511Z,41.28
2016-12-21T01:55:08.544Z,41.08
2016-12-21T01:56:08.265Z,41.56
2016-12-21T01:57:08.293Z,41.66
2016-12-21T01:58:08.309Z,41.76
2016-12-21T01:59:08.339Z,41.47
2016-12-21T02:00:08.367Z,41.47
2016-12-21T02:01:08.400Z,41.66
2016-12-21T02:02:08.422Z,41.76
2016-12-21T02:03:08.452Z,41.56
2016-12-21T02:04:08.776Z,41.66
2016-12-21T02:05:08.810Z,41.38
2016-12-21T02:06:08.523Z,41.76
2016-12-21T02:07:08.552Z,41.18
2016-12-21T02:08:08.577Z,41.66
2016-12-21T02:09:08.613Z,41.66
2016-12-21T02:10:08.637Z,41.47
2016-12-21T02:11:08.662Z,41.56
2016-12-21T02:12:09.003Z,41.66
2016-12-21T02:13:08.718Z,41.56
2016-12-21T02:14:09.040Z,40.99
2016-12-21T02:15:09.068Z,41.47
2016-12-21T02:16:08.802Z,41.56
2016-12-21T02:17:08.822Z,41.76
2016-12-21T02:18:08.851Z,41.56
2016-12-21T02:19:09.184Z,41.28
2016-12-21T02:20:08.909Z,41.28
2016-12-21T02:21:09.237Z,41.56
2016-12-21T02:22:08.956Z,41.08
2016-12-21T02:23:09.282Z,41.08
2016-12-21T02:24:09.010Z,41.56
2016-12-21T02:25:09.039Z,41.56
2016-12-21T02:26:09.368Z,41.76
2016-12-21T02:27:09.090Z,41.56
2016-12-21T02:28:09.426Z,41.76
2016-12-21T02:29:09.167Z,41.47
2016-12-21T02:30:09.476Z,41.56
2016-12-21T02:31:09.191Z,41.56
2016-12-21T02:32:09.228Z,41.18
2016-12-21T02:33:09.553Z,41.18
2016-12-21T02:34:09.274Z,40.99
2016-12-21T02:35:09.307Z,41.66
2016-12-21T02:36:09.637Z,41.47
2016-12-21T02:37:09.364Z,41.47
2016-12-21T02:38:09.693Z,41.47
2016-12-21T02:39:09.721Z,41.18
2016-12-21T02:40:09.744Z,41.66
2016-12-21T02:41:09.758Z,41.47
2016-12-21T02:42:09.799Z,40.99
2016-12-21T02:43:09.519Z,40.99
2016-12-21T02:44:09.853Z,40.99
2016-12-21T02:45:09.880Z,40.99
2016-12-21T02:46:09.902Z,40.99
2016-12-21T02:47:09.934Z,40.99
2016-12-21T02:48:09.952Z,40.99
2016-12-21T02:49:09.679Z,40.99
2016-12-21T02:50:10.032Z,41.38
2016-12-21T02:51:10.032Z,41.28
2016-12-21T02:52:10.065Z,41.08
2016-12-21T02:53:09.786Z,41.38
2016-12-21T02:54:09.811Z,41.28
2016-12-21T02:55:09.833Z,41.38
2016-12-21T02:56:09.856Z,41.18
2016-12-21T02:57:10.196Z,41.28
2016-12-21T02:58:09.917Z,41.28
2016-12-21T02:59:09.946Z,41.28
2016-12-21T03:00:09.969Z,41.38
2016-12-21T03:01:10.301Z,41.47
2016-12-21T03:02:10.027Z,40.99
2016-12-21T03:03:10.353Z,41.38
2016-12-21T03:04:10.385Z,41.06
2016-12-21T03:05:10.410Z,40.99
2016-12-21T03:06:10.130Z,40.97
2016-12-21T03:07:10.158Z,41.28
2016-12-21T03:08:10.183Z,41.26
2016-12-21T03:09:10.212Z,41.26
2016-12-21T03:10:10.539Z,41.38
2016-12-21T03:11:10.257Z,41.26
2016-12-21T03:12:10.281Z,41.08
2016-12-21T03:13:10.618Z,40.99
2016-12-21T03:14:10.347Z,41.26
2016-12-21T03:15:10.367Z,41.06
2016-12-21T03:16:10.392Z,41.06
2016-12-21T03:17:10.728Z,41.35
2016-12-21T03:18:10.751Z,41.26
2016-12-21T03:19:10.774Z,41.35
2016-12-21T03:20:10.490Z,41.35
2016-12-21T03:21:10.826Z,41.26
2016-12-21T03:22:10.547Z,41.35
2016-12-21T03:23:10.876Z,41.35
2016-12-21T03:24:10.912Z,41.16
2016-12-21T03:25:10.637Z,41.26
2016-12-21T03:26:10.690Z,41.26
2016-12-21T03:27:10.687Z,41.16
2016-12-21T03:28:10.711Z,41.45
2016-12-21T03:29:10.736Z,41.26
2016-12-21T03:30:11.056Z,41.16
2016-12-21T03:31:10.785Z,41.28
2016-12-21T03:32:10.809Z,41.26
2016-12-21T03:33:10.842Z,41.35
2016-12-21T03:34:10.870Z,41.26
2016-12-21T03:35:11.195Z,41.06
2016-12-21T03:36:11.219Z,41.45
2016-12-21T03:37:10.939Z,41.35
2016-12-21T03:38:10.977Z,41.16
2016-12-21T03:39:10.997Z,41.06
2016-12-21T03:40:11.030Z,41.16
2016-12-21T03:41:11.055Z,41.06
2016-12-21T03:42:11.080Z,41.06
2016-12-21T03:43:11.413Z,41.06
2016-12-21T03:44:11.120Z,41.06
2016-12-21T03:45:11.157Z,41.06
2016-12-21T03:46:11.181Z,40.88
2016-12-21T03:47:11.210Z,40.97
2016-12-21T03:48:11.232Z,41.26
2016-12-21T03:49:11.566Z,41.06
2016-12-21T03:50:11.292Z,41.26
2016-12-21T03:51:11.312Z,41.26
2016-12-21T03:52:11.640Z,41.26
2016-12-21T03:53:11.366Z,41.26
2016-12-21T03:54:11.390Z,41.16
2016-12-21T03:55:11.423Z,41.35
2016-12-21T03:56:11.752Z,41.16
2016-12-21T03:57:11.481Z,41.26
2016-12-21T03:58:11.802Z,41.26
2016-12-21T03:59:11.835Z,41.35
2016-12-21T04:00:11.555Z,41.26
2016-12-21T04:01:11.887Z,41.35
2016-12-21T04:02:11.904Z,41.35
2016-12-21T04:03:11.637Z,41.26
2016-12-21T04:04:11.966Z,41.35
2016-12-21T04:05:11.995Z,41.35
2016-12-21T04:06:11.716Z,41.16
2016-12-21T04:07:12.044Z,41.35
2016-12-21T04:08:12.065Z,41.35
2016-12-21T04:09:11.785Z,41.35
2016-12-21T04:10:11.818Z,41.35
2016-12-21T04:11:11.851Z,41.26
2016-12-21T04:12:12.176Z,41.16
2016-12-21T04:13:11.905Z,41.16
2016-12-21T04:14:12.225Z,41.45
2016-12-21T04:15:12.259Z,41.06
2016-12-21T04:16:12.278Z,40.88
2016-12-21T04:17:12.003Z,41.45
2016-12-21T04:18:12.336Z,41.45
2016-12-21T04:19:12.056Z,41.55
2016-12-21T04:20:12.081Z,41.45
2016-12-21T04:21:12.114Z,41.55
2016-12-21T04:22:12.139Z,41.45
2016-12-21T04:23:12.468Z,41.45
2016-12-21T04:24:12.490Z,41.26
2016-12-21T04:25:12.516Z,41.35
2016-12-21T04:26:12.545Z,40.68
2016-12-21T04:27:12.270Z,41.35
2016-12-21T04:28:12.603Z,41.45
2016-12-21T04:29:12.324Z,40.58
2016-12-21T04:30:12.653Z,41.35
2016-12-21T04:31:12.380Z,40.88
2016-12-21T04:32:12.431Z,40.78
2016-12-21T04:33:12.422Z,40.88
2016-12-21T04:34:12.751Z,40.78
2016-12-21T04:35:12.782Z,40.78
2016-12-21T04:36:12.513Z,40.97
2016-12-21T04:37:12.529Z,40.88
2016-12-21T04:38:12.558Z,40.78
2016-12-21T04:39:12.583Z,40.68
2016-12-21T04:40:12.911Z,40.88
2016-12-21T04:41:12.632Z,40.58
2016-12-21T04:42:12.964Z,40.78
2016-12-21T04:43:12.698Z,40.88
2016-12-21T04:44:12.723Z,40.78
2016-12-21T04:45:12.745Z,40.68
2016-12-21T04:46:13.086Z,40.97
2016-12-21T04:47:12.790Z,40.97
2016-12-21T04:48:12.821Z,40.58
2016-12-21T04:49:12.846Z,40.58
2016-12-21T04:50:12.875Z,40.58
2016-12-21T04:51:13.204Z,40.88
2016-12-21T04:52:13.240Z,40.58
2016-12-21T04:53:12.957Z,40.58
2016-12-21T04:54:13.294Z,40.58
2016-12-21T04:55:13.306Z,40.68
2016-12-21T04:56:13.031Z,40.58
2016-12-21T04:57:13.365Z,40.76
2016-12-21T04:58:13.091Z,40.78
2016-12-21T04:59:13.117Z,40.78
2016-12-21T05:00:13.450Z,40.58
2016-12-21T05:01:13.166Z,40.68
2016-12-21T05:02:13.187Z,40.68
2016-12-21T05:03:13.222Z,40.78
2016-12-21T05:04:13.552Z,40.76
2016-12-21T05:05:13.277Z,40.78
2016-12-21T05:06:13.294Z,40.58
2016-12-21T05:07:13.318Z,40.58
2016-12-21T05:08:13.348Z,40.56
2016-12-21T05:09:13.379Z,40.78
2016-12-21T05:10:13.705Z,40.78
2016-12-21T05:11:13.729Z,40.78
2016-12-21T05:12:13.754Z,40.58
2016-12-21T05:13:13.481Z,40.56
2016-12-21T05:14:13.504Z,40.78
2016-12-21T05:15:13.833Z,40.78
2016-12-21T05:16:13.865Z,40.88
2016-12-21T05:17:13.894Z,40.58
2016-12-21T05:18:13.617Z,40.47
2016-12-21T05:19:13.955Z,40.58
2016-12-21T05:20:13.976Z,40.97
2016-12-21T05:21:13.693Z,40.47
2016-12-21T05:22:13.723Z,40.56
2016-12-21T05:23:14.046Z,40.78
2016-12-21T05:24:13.775Z,40.78
2016-12-21T05:25:13.800Z,40.56
2016-12-21T05:26:13.816Z,40.88
2016-12-21T05:27:13.849Z,40.68
2016-12-21T05:28:14.178Z,40.66
2016-12-21T05:29:13.902Z,40.88
2016-12-21T05:30:14.235Z,40.97
2016-12-21T05:31:13.956Z,40.66
2016-12-21T05:32:13.981Z,40.88
2016-12-21T05:33:14.014Z,40.78
2016-12-21T05:34:14.034Z,40.58
2016-12-21T05:35:14.055Z,40.68
2016-12-21T05:36:14.081Z,40.68
2016-12-21T05:37:14.420Z,40.58
2016-12-21T05:38:14.449Z,40.78
2016-12-21T05:39:14.170Z,40.88
2016-12-21T05:40:14.496Z,40.97
2016-12-21T05:41:14.220Z,40.97
2016-12-21T05:42:14.557Z,40.88
2016-12-21T05:43:14.577Z,40.78
2016-12-21T05:44:14.326Z,40.68
2016-12-21T05:45:14.631Z,40.58
2016-12-21T05:46:14.647Z,40.58
2016-12-21T05:47:14.688Z,40.97
2016-12-21T05:48:14.405Z,41.16
2016-12-21T05:49:14.737Z,40.68
2016-12-21T05:50:14.758Z,40.51
2016-12-21T05:51:14.483Z,40.49
2016-12-21T05:52:14.811Z,40.51
2016-12-21T05:53:14.839Z,40.7
2016-12-21T05:54:14.861Z,40.61
2016-12-21T05:55:14.585Z,40.7
2016-12-21T05:56:14.919Z,40.41
2016-12-21T05:57:14.939Z,39.83
2016-12-21T05:58:14.672Z,40.12
2016-12-21T05:59:15.009Z,40.31
2016-12-21T06:00:14.713Z,39.93
2016-12-21T06:01:14.750Z,40.03
2016-12-21T06:02:14.771Z,40.03
2016-12-21T06:03:15.107Z,39.93
2016-12-21T06:04:15.132Z,39.93
2016-12-21T06:05:14.853Z,39.93
2016-12-21T06:06:14.879Z,40.03
2016-12-21T06:07:14.903Z,39.93
2016-12-21T06:08:15.240Z,39.54
2016-12-21T06:09:14.952Z,39.74
2016-12-21T06:10:14.989Z,39.93
2016-12-21T06:11:15.009Z,39.83
2016-12-21T06:12:15.342Z,39.74
2016-12-21T06:13:15.071Z,39.83
2016-12-21T06:14:15.091Z,39.83
2016-12-21T06:15:15.120Z,39.86
2016-12-21T06:16:15.449Z,39.83
2016-12-21T06:17:15.477Z,39.66
2016-12-21T06:18:15.193Z,39.76
2016-12-21T06:19:15.222Z,39.66
2016-12-21T06:20:15.251Z,39.56
2016-12-21T06:21:15.275Z,39.76
2016-12-21T06:22:15.631Z,39.56
2016-12-21T06:23:15.628Z,39.76
2016-12-21T06:24:15.661Z,39.76
2016-12-21T06:25:15.381Z,39.66
2016-12-21T06:26:15.714Z,39.66
2016-12-21T06:27:15.434Z,39.76
2016-12-21T06:28:15.459Z,39.76
2016-12-21T06:29:15.488Z,39.66
2016-12-21T06:30:15.812Z,39.56
2016-12-21T06:31:15.850Z,39.66
2016-12-21T06:32:15.565Z,39.86
2016-12-21T06:33:15.898Z,39.76
2016-12-21T06:34:15.619Z,39.56
2016-12-21T06:35:15.648Z,39.56
2016-12-21T06:36:15.977Z,39.66
2016-12-21T06:37:16.001Z,39.78
2016-12-21T06:38:15.722Z,39.56
2016-12-21T06:39:15.750Z,39.97
2016-12-21T06:40:15.775Z,39.56
2016-12-21T06:41:16.113Z,39.66
2016-12-21T06:42:15.844Z,39.78
2016-12-21T06:43:16.166Z,39.97
2016-12-21T06:44:16.190Z,39.97
2016-12-21T06:45:16.218Z,39.78
2016-12-21T06:46:15.936Z,39.66
2016-12-21T06:47:15.968Z,39.68
2016-12-21T06:48:15.993Z,39.78
2016-12-21T06:49:16.018Z,39.66
2016-12-21T06:50:16.347Z,39.59
2016-12-21T06:51:16.071Z,39.68
2016-12-21T06:52:16.402Z,39.59
2016-12-21T06:53:16.429Z,39.78
2016-12-21T06:54:16.153Z,39.78
2016-12-21T06:55:16.170Z,39.68
2016-12-21T06:56:16.510Z,39.59
2016-12-21T06:57:16.234Z,39.59
2016-12-21T06:58:16.256Z,40.16
2016-12-21T06:59:16.588Z,39.68
2016-12-21T07:00:16.310Z,39.97
2016-12-21T07:01:16.651Z,39.87
2016-12-21T07:02:16.671Z,39.97
2016-12-21T07:03:16.700Z,39.87
2016-12-21T07:04:16.721Z,39.97
2016-12-21T07:05:16.441Z,40.07
2016-12-21T07:06:16.470Z,40.07
2016-12-21T07:07:16.498Z,40.16
2016-12-21T07:08:16.527Z,40.16
2016-12-21T07:09:16.552Z,40.26
2016-12-21T07:10:16.576Z,40.16
2016-12-21T07:11:16.913Z,39.97
2016-12-21T07:12:16.642Z,40.16
2016-12-21T07:13:16.658Z,39.97
2016-12-21T07:14:16.683Z,39.97
2016-12-21T07:15:16.712Z,40.45
2016-12-21T07:16:16.736Z,40.74
2016-12-21T07:17:16.761Z,40.64
2016-12-21T07:18:17.098Z,40.64
2016-12-21T07:19:16.818Z,40.64
2016-12-21T07:20:17.152Z,40.74
2016-12-21T07:21:16.876Z,40.84
2016-12-21T07:22:16.901Z,40.64
2016-12-21T07:23:17.225Z,40.74
2016-12-21T07:24:17.251Z,40.74
2016-12-21T07:25:16.983Z,40.55
2016-12-21T07:26:17.311Z,40.64
2016-12-21T07:27:17.036Z,40.64
2016-12-21T07:28:17.056Z,40.64
2016-12-21T07:29:17.393Z,40.55
2016-12-21T07:30:17.125Z,40.55
2016-12-21T07:31:17.443Z,40.45
2016-12-21T07:32:17.172Z,40.55
2016-12-21T07:33:17.501Z,40.45
2016-12-21T07:34:17.221Z,40.55
2016-12-21T07:35:17.550Z,40.26
2016-12-21T07:36:17.630Z,40.45
2016-12-21T07:37:17.603Z,40.45
2016-12-21T07:38:17.332Z,40.45
2016-12-21T07:39:17.357Z,40.45
2016-12-21T07:40:17.685Z,40.55
2016-12-21T07:41:17.415Z,40.94
2016-12-21T07:42:17.439Z,40.45
2016-12-21T07:43:17.764Z,40.45
2016-12-21T07:44:17.792Z,39.78
2016-12-21T07:45:17.524Z,39.97
2016-12-21T07:46:17.541Z,40.55
2016-12-21T07:47:17.874Z,40.45
2016-12-21T07:48:17.592Z,40.74
2016-12-21T07:49:17.932Z,40.55
2016-12-21T07:50:17.950Z,40.55
2016-12-21T07:51:17.680Z,40.64
2016-12-21T07:52:17.715Z,40.74
2016-12-21T07:53:17.735Z,40.64
2016-12-21T07:54:18.068Z,40.55
2016-12-21T07:55:18.093Z,40.64
2016-12-21T07:56:18.119Z,40.64
2016-12-21T07:57:18.139Z,40.84
2016-12-21T07:58:17.867Z,40.74
2016-12-21T07:59:18.192Z,40.74
2016-12-21T08:00:18.229Z,40.64
2016-12-21T08:01:18.257Z,40.74
2016-12-21T08:02:17.974Z,40.64
2016-12-21T08:03:18.307Z,40.74
2016-12-21T08:04:18.331Z,40.55
2016-12-21T08:05:18.364Z,40.26
2016-12-21T08:06:18.085Z,40.26
2016-12-21T08:07:18.418Z,40.74
2016-12-21T08:08:18.442Z,40.55
2016-12-21T08:09:18.171Z,40.36
2016-12-21T08:10:18.196Z,40.24
2016-12-21T08:11:18.517Z,41.11
2016-12-21T08:12:18.247Z,40.63
2016-12-21T08:13:18.578Z,40.63
2016-12-21T08:14:18.299Z,40.43
2016-12-21T08:15:18.624Z,40.55
2016-12-21T08:16:18.661Z,40.55
2016-12-21T08:17:18.379Z,40.63
2016-12-21T08:18:18.402Z,40.91
2016-12-21T08:19:18.455Z,40.43
2016-12-21T08:20:18.466Z,40.64
2016-12-21T08:21:18.792Z,40.43
2016-12-21T08:22:18.513Z,40.53
2016-12-21T08:23:18.538Z,40.05
2016-12-21T08:24:18.874Z,40.53
2016-12-21T08:25:18.908Z,40.34
2016-12-21T08:26:18.624Z,40.34
2016-12-21T08:27:18.653Z,40.43
2016-12-21T08:28:18.987Z,40.34
2016-12-21T08:29:18.719Z,40.72
2016-12-21T08:30:18.727Z,40.72
2016-12-21T08:31:19.068Z,40.53
2016-12-21T08:32:18.793Z,40.43
2016-12-21T08:33:18.809Z,40.63
2016-12-21T08:34:18.846Z,40.34
2016-12-21T08:35:18.867Z,40.24
2016-12-21T08:36:18.896Z,40.53
2016-12-21T08:37:18.920Z,40.43
2016-12-21T08:38:19.244Z,40.34
2016-12-21T08:39:18.976Z,40.63
2016-12-21T08:40:18.998Z,41.01
2016-12-21T08:41:19.362Z,41.01
2016-12-21T08:42:19.355Z,40.63
2016-12-21T08:43:19.083Z,40.53
2016-12-21T08:44:19.412Z,40.72
2016-12-21T08:45:19.137Z,40.72
2016-12-21T08:46:19.466Z,40.43
2016-12-21T08:47:19.181Z,40.91
2016-12-21T08:48:19.518Z,40.72
2016-12-21T08:49:19.251Z,40.91
2016-12-21T08:50:19.575Z,40.81
2016-12-21T08:51:19.296Z,40.72
2016-12-21T08:52:19.325Z,40.63
2016-12-21T08:53:19.657Z,40.91
2016-12-21T08:54:19.679Z,40.63
2016-12-21T08:55:19.703Z,40.53
2016-12-21T08:56:19.423Z,40.91
2016-12-21T08:57:19.448Z,40.63
2016-12-21T08:58:19.488Z,41.11
2016-12-21T08:59:19.506Z,40.81
2016-12-21T09:00:19.534Z,40.99
2016-12-21T09:01:19.563Z,40.91
2016-12-21T09:02:19.592Z,40.81
2016-12-21T09:03:19.615Z,40.81
2016-12-21T09:04:19.641Z,40.81
2016-12-21T09:05:19.982Z,40.72
2016-12-21T09:06:20.001Z,40.72
2016-12-21T09:07:19.714Z,40.91
2016-12-21T09:08:20.047Z,41.08
2016-12-21T09:09:20.078Z,40.99
2016-12-21T09:10:19.808Z,41.01
2016-12-21T09:11:20.137Z,40.89
2016-12-21T09:12:19.854Z,40.8
2016-12-21T09:13:19.878Z,40.8
2016-12-21T09:14:19.910Z,40.81
2016-12-21T09:15:19.939Z,40.8
2016-12-21T09:16:19.964Z,40.51
2016-12-21T09:17:20.296Z,40.51
2016-12-21T09:18:20.018Z,40.51
2016-12-21T09:19:20.350Z,40.63
2016-12-21T09:20:20.375Z,40.72
2016-12-21T09:21:20.103Z,40.8
2016-12-21T09:22:20.123Z,40.8
2016-12-21T09:23:20.152Z,40.61
2016-12-21T09:24:20.169Z,40.61
2016-12-21T09:25:20.510Z,40.8
2016-12-21T09:26:20.230Z,40.89
2016-12-21T09:27:20.559Z,40.99
2016-12-21T09:28:20.584Z,41.56
2016-12-21T09:29:20.313Z,41.08
2016-12-21T09:30:20.642Z,41.66
2016-12-21T09:31:20.365Z,41.18
2016-12-21T09:32:20.690Z,41.18
2016-12-21T09:33:20.423Z,41.47
2016-12-21T09:34:20.444Z,41.28
2016-12-21T09:35:20.780Z,41.08
2016-12-21T09:36:20.497Z,41.38
2016-12-21T09:37:20.825Z,41.38
2016-12-21T09:38:20.551Z,41.28
2016-12-21T09:39:20.579Z,41.47
2016-12-21T09:40:20.605Z,41.28
2016-12-21T09:41:20.632Z,41.47
2016-12-21T09:42:20.973Z,41.56
2016-12-21T09:43:20.989Z,41.28
2016-12-21T09:44:21.020Z,41.47
2016-12-21T09:45:20.740Z,41.47
2016-12-21T09:46:21.064Z,41.56
2016-12-21T09:47:20.795Z,41.95
2016-12-21T09:48:20.813Z,41.86
2016-12-21T09:49:21.154Z,41.56
2016-12-21T09:50:20.871Z,41.86
2016-12-21T09:51:20.912Z,41.76
2016-12-21T09:52:20.925Z,41.86
2016-12-21T09:53:21.262Z,42.05
2016-12-21T09:54:20.978Z,41.95
2016-12-21T09:55:21.007Z,41.95
2016-12-21T09:56:21.336Z,42.14
2016-12-21T09:57:21.365Z,42.05
2016-12-21T09:58:21.389Z,42.05
2016-12-21T09:59:21.422Z,42.05
2016-12-21T10:00:21.139Z,42.05
2016-12-21T10:01:21.168Z,42.05
2016-12-21T10:02:21.184Z,41.86
2016-12-21T10:03:21.521Z,41.66
2016-12-21T10:04:21.250Z,41.76
2016-12-21T10:05:21.280Z,41.95
2016-12-21T10:06:21.303Z,42.05
2016-12-21T10:07:21.364Z,41.95
2016-12-21T10:08:21.657Z,41.66
2016-12-21T10:09:21.386Z,41.95
2016-12-21T10:10:21.403Z,41.76
2016-12-21T10:11:21.739Z,41.66
2016-12-21T10:12:21.456Z,41.66
2016-12-21T10:13:21.489Z,42.05
2016-12-21T10:14:21.519Z,41.76
2016-12-21T10:15:21.539Z,42.43
2016-12-21T10:16:21.867Z,42.43
2016-12-21T10:17:21.592Z,42.24
2016-12-21T10:18:21.920Z,42.43
2016-12-21T10:19:21.954Z,42.14
2016-12-21T10:20:21.670Z,42.14
2016-12-21T10:21:21.699Z,42.24
2016-12-21T10:22:21.728Z,42.14
2016-12-21T10:23:22.053Z,42.24
2016-12-21T10:24:21.790Z,42.12
2016-12-21T10:25:21.810Z,42.43
2016-12-21T10:26:21.831Z,42.33
2016-12-21T10:27:22.168Z,42.33
2016-12-21T10:28:21.893Z,42.12
2016-12-21T10:29:21.914Z,42.24
2016-12-21T10:30:21.939Z,42.43
2016-12-21T10:31:22.275Z,42.32
2016-12-21T10:32:22.304Z,42.14
2016-12-21T10:33:22.329Z,42.41
2016-12-21T10:34:22.354Z,42.12
2016-12-21T10:35:22.371Z,42.32
2016-12-21T10:36:22.407Z,42.5
2016-12-21T10:37:22.436Z,42.12
2016-12-21T10:38:22.153Z,42.33
2016-12-21T10:39:22.186Z,42.22
2016-12-21T10:40:22.211Z,42.03
2016-12-21T10:41:22.544Z,42.41
2016-12-21T10:42:22.257Z,42.41
2016-12-21T10:43:22.281Z,42.41
2016-12-21T10:44:22.310Z,42.12
2016-12-21T10:45:22.371Z,42.41
2016-12-21T10:46:22.372Z,42.24
2016-12-21T10:47:22.698Z,42.32
2016-12-21T10:48:22.430Z,42.22
2016-12-21T10:49:22.758Z,42.41
2016-12-21T10:50:22.474Z,42.22
2016-12-21T10:51:22.496Z,42.41
2016-12-21T10:52:22.538Z,42.41
2016-12-21T10:53:22.865Z,42.32
2016-12-21T10:54:22.594Z,42.41
2016-12-21T10:55:22.928Z,42.41
2016-12-21T10:56:22.636Z,42.22
2016-12-21T10:57:22.973Z,42.22
2016-12-21T10:58:22.685Z,42.22
2016-12-21T10:59:22.709Z,42.22
2016-12-21T11:00:22.738Z,42.22
2016-12-21T11:01:22.771Z,42.03
2016-12-21T11:02:22.796Z,42.03
2016-12-21T11:03:23.125Z,42.03
2016-12-21T11:04:23.149Z,42.03
2016-12-21T11:05:22.883Z,42.43
2016-12-21T11:06:22.902Z,42.41
2016-12-21T11:07:22.927Z,42.12
2016-12-21T11:08:22.952Z,41.83
2016-12-21T11:09:22.980Z,42.32
2016-12-21T11:10:23.002Z,42.41
2016-12-21T11:11:23.038Z,42.32
2016-12-21T11:12:23.367Z,42.24
2016-12-21T11:13:23.391Z,42.03
2016-12-21T11:14:23.112Z,42.22
2016-12-21T11:15:23.137Z,42.22
2016-12-21T11:16:23.169Z,42.32
2016-12-21T11:17:23.194Z,42.5
2016-12-21T11:18:23.223Z,42.5
2016-12-21T11:19:23.248Z,42.6
2016-12-21T11:20:23.580Z,42.5
2016-12-21T11:21:23.301Z,42.5
2016-12-21T11:22:23.625Z,42.6
2016-12-21T11:23:23.350Z,42.6
2016-12-21T11:24:23.386Z,42.6
2016-12-21T11:25:23.411Z,42.8
2016-12-21T11:26:23.732Z,42.6
2016-12-21T11:27:23.769Z,42.6
2016-12-21T11:28:23.486Z,42.5
2016-12-21T11:29:23.822Z,43.08
2016-12-21T11:30:23.839Z,42.41
2016-12-21T11:31:23.563Z,42.41
2016-12-21T11:32:23.589Z,43.37
2016-12-21T11:33:23.625Z,43.18
2016-12-21T11:34:23.647Z,43.28
2016-12-21T11:35:23.979Z,43.28
2016-12-21T11:36:24.001Z,43.18
2016-12-21T11:37:23.726Z,43.18
2016-12-21T11:38:23.753Z,43.18
2016-12-21T11:39:23.786Z,43.18
2016-12-21T11:40:23.803Z,43.28
2016-12-21T11:41:23.832Z,42.99
2016-12-21T11:42:23.865Z,43.28
2016-12-21T11:43:24.190Z,43.37
2016-12-21T11:44:23.911Z,43.18
2016-12-21T11:45:24.252Z,43.08
2016-12-21T11:46:24.264Z,43.08
2016-12-21T11:47:24.293Z,42.99
2016-12-21T11:48:24.317Z,43.08
2016-12-21T11:49:24.048Z,43.08
2016-12-21T11:50:24.380Z,43.28
2016-12-21T11:51:24.445Z,43.18
2016-12-21T11:52:24.441Z,43.18
2016-12-21T11:53:24.145Z,43.08
2016-12-21T11:54:24.183Z,43.08
2016-12-21T11:55:24.208Z,43.18
2016-12-21T11:56:24.234Z,42.99
2016-12-21T11:57:24.258Z,43.08
2016-12-21T11:58:24.590Z,43.08
2016-12-21T11:59:24.623Z,43.18
2016-12-21T12:00:24.336Z,42.7
2016-12-21T12:01:24.668Z,43.08
2016-12-21T12:02:24.689Z,42.8
2016-12-21T12:03:24.416Z,42.7
2016-12-21T12:04:24.751Z,43.08
2016-12-21T12:05:24.784Z,42.8
2016-12-21T12:06:24.529Z,42.8
2016-12-21T12:07:24.533Z,42.7
2016-12-21T12:08:24.866Z,42.8
2016-12-21T12:09:24.579Z,42.99
2016-12-21T12:10:24.608Z,42.8
2016-12-21T12:11:24.636Z,42.99
2016-12-21T12:12:24.970Z,42.89
2016-12-21T12:13:24.986Z,42.99
2016-12-21T12:14:24.715Z,42.99
2016-12-21T12:15:25.052Z,42.89
2016-12-21T12:16:25.077Z,42.89
2016-12-21T12:17:24.789Z,42.89
2016-12-21T12:18:25.125Z,42.8
2016-12-21T12:19:24.843Z,42.7
2016-12-21T12:20:25.184Z,42.7
2016-12-21T12:21:25.205Z,42.99
2016-12-21T12:22:24.930Z,42.89
2016-12-21T12:23:24.954Z,42.41
2016-12-21T12:24:25.289Z,43.18
2016-12-21T12:25:25.004Z,43.08
2016-12-21T12:26:25.033Z,43.18
2016-12-21T12:27:25.059Z,42.41
2016-12-21T12:28:25.087Z,42.6
2016-12-21T12:29:25.423Z,42.5
2016-12-21T12:30:25.456Z,42.41
2016-12-21T12:31:25.478Z,43.08
2016-12-21T12:32:25.494Z,42.5
2016-12-21T12:33:25.514Z,42.89
2016-12-21T12:34:25.547Z,42.5
2016-12-21T12:35:25.588Z,42.6
2016-12-21T12:36:25.605Z,42.7
2016-12-21T12:37:25.638Z,42.6
2016-12-21T12:38:25.658Z,42.7
2016-12-21T12:39:25.383Z,42.8
2016-12-21T12:40:25.710Z,42.6
2016-12-21T12:41:25.740Z,42.22
2016-12-21T12:42:25.461Z,42.7
2016-12-21T12:43:25.790Z,42.41
2016-12-21T12:44:25.515Z,42.7
2016-12-21T12:45:25.548Z,42.41
2016-12-21T12:46:25.569Z,42.6
2016-12-21T12:47:25.597Z,42.6
2016-12-21T12:48:25.618Z,42.22
2016-12-21T12:49:25.946Z,42.5
2016-12-21T12:50:25.971Z,42.41
2016-12-21T12:51:26.007Z,42.7
2016-12-21T12:52:25.729Z,42.7
2016-12-21T12:53:25.752Z,42.22
2016-12-21T12:54:26.084Z,42.6